Time;durP1;ratioP1;P1;durP2;ratioP2;P2;SDS_P1;SDS_P2;PMS_P1;PMS_P2;Temp;Humidity;BMP_temperature;BMP_pressure;BME280_temperature;BME280_humidity;BME280_pressure;Samples;Min_cycle;Max_cycle;Signal;HPM_P1;HPM_P2
2021/05/04 00:01:31;;;;;;;6.53;3.20;;;13.30;43.00;;;;;;5073683;28;20946;-68
2021/05/04 00:03:57;;;;;;;6.37;2.80;;;13.30;43.00;;;;;;5073644;28;20449;-68
2021/05/04 00:06:23;;;;;;;2.77;2.33;;;13.40;43.00;;;;;;5073587;28;20965;-68
2021/05/04 00:08:50;;;;;;;6.73;2.90;;;13.50;42.20;;;;;;5073870;28;20448;-68
2021/05/04 00:11:16;;;;;;;6.60;2.40;;;13.50;41.70;;;;;;5073684;28;20526;-68
2021/05/04 00:13:43;;;;;;;7.47;2.37;;;13.60;41.10;;;;;;5073873;28;20448;-68
2021/05/04 00:16:09;;;;;;;5.60;2.30;;;13.70;40.80;;;;;;5073815;28;20444;-68
2021/05/04 00:18:36;;;;;;;2.80;1.83;;;13.70;40.80;;;;;;5073782;28;20467;-68
2021/05/04 00:21:02;;;;;;;6.30;2.00;;;13.80;40.60;;;;;;5073645;28;20465;-68
2021/05/04 00:23:28;;;;;;;5.73;2.50;;;13.90;40.80;;;;;;5073723;28;20574;-68
2021/05/04 00:25:54;;;;;;;6.83;2.70;;;13.80;40.20;;;;;;5073658;28;20457;-68
2021/05/04 00:28:20;;;;;;;3.20;2.00;;;13.90;40.20;;;;;;5073653;28;20448;-68
2021/05/04 00:30:47;;;;;;;6.70;2.60;;;13.90;40.30;;;;;;5073460;28;20523;-68
2021/05/04 00:33:14;;;;;;;6.80;1.97;;;13.90;40.20;;;;;;5073892;28;20440;-68
2021/05/04 00:35:40;;;;;;;5.37;2.53;;;14.00;40.00;;;;;;5073526;28;20444;-68
2021/05/04 00:38:06;;;;;;;3.23;2.30;;;14.10;40.50;;;;;;5073509;28;20509;-68
2021/05/04 00:40:32;;;;;;;3.77;1.87;;;14.10;39.70;;;;;;5073441;28;20510;-68
2021/05/04 00:42:59;;;;;;;2.53;1.60;;;14.00;39.90;;;;;;5073314;28;20433;-68
2021/05/04 00:45:25;;;;;;;5.67;2.07;;;14.10;40.30;;;;;;5072864;28;20445;-68
2021/05/04 00:47:52;;;;;;;7.70;1.50;;;14.10;40.30;;;;;;5073457;28;20453;-68
2021/05/04 00:50:18;;;;;;;2.20;1.80;;;14.10;40.00;;;;;;5073264;28;20993;-68
2021/05/04 00:52:46;;;;;;;5.10;1.90;;;14.10;40.10;;;;;;5073553;28;20481;-68
2021/05/04 00:55:13;;;;;;;5.30;1.90;;;14.10;39.80;;;;;;5073318;28;20459;-68
2021/05/04 00:57:42;;;;;;;2.93;1.70;;;14.10;39.60;;;;;;5073394;28;20444;-68
2021/05/04 01:00:11;;;;;;;5.23;2.00;;;14.10;40.00;;;;;;5073194;28;20835;-68
2021/05/04 01:02:40;;;;;;;4.03;1.60;;;14.20;39.70;;;;;;5073263;28;20875;-68
2021/05/04 01:05:08;;;;;;;11.13;1.70;;;14.10;39.80;;;;;;5073241;28;20448;-68
2021/05/04 01:07:34;;;;;;;5.33;2.07;;;14.10;39.80;;;;;;5073273;28;20445;-68
2021/05/04 01:10:01;;;;;;;6.00;1.67;;;14.20;40.00;;;;;;5073137;28;20460;-68
2021/05/04 01:12:27;;;;;;;13.40;2.13;;;14.20;39.80;;;;;;5073112;28;20476;-68
2021/05/04 01:14:53;;;;;;;10.10;2.03;;;14.10;39.50;;;;;;5073162;28;20521;-68
2021/05/04 01:17:19;;;;;;;10.80;2.70;;;14.20;40.00;;;;;;5073261;28;20449;-68
2021/05/04 01:19:46;;;;;;;8.00;2.40;;;14.20;39.70;;;;;;5073068;28;20556;-68
2021/05/04 01:22:13;;;;;;;11.40;2.00;;;14.20;39.80;;;;;;5073611;28;20440;-68
2021/05/04 01:24:39;;;;;;;7.17;1.87;;;14.20;39.80;;;;;;5073089;28;20433;-68
2021/05/04 01:27:06;;;;;;;4.57;1.93;;;14.20;39.50;;;;;;5072991;28;20455;-68
2021/05/04 01:29:33;;;;;;;13.97;2.10;;;14.20;39.50;;;;;;5072944;28;20464;-68
2021/05/04 01:32:00;;;;;;;21.40;2.93;;;14.10;39.30;;;;;;5073548;28;20476;-68
2021/05/04 01:34:26;;;;;;;24.00;3.20;;;14.20;39.80;;;;;;5073034;28;20427;-68
2021/05/04 01:36:53;;;;;;;7.73;2.50;;;14.20;39.70;;;;;;5072931;28;20477;-68
2021/05/04 01:39:28;;;;;;;16.73;2.10;;;14.10;39.30;;;;;;5072869;28;20464;-68
2021/05/04 01:41:54;;;;;;;7.33;2.20;;;14.10;39.10;;;;;;5072983;28;20435;-68
2021/05/04 01:44:20;;;;;;;8.40;1.90;;;14.10;38.70;;;;;;5072939;28;20441;-68
2021/05/04 01:46:46;;;;;;;20.47;2.70;;;14.10;38.50;;;;;;5072953;28;20452;-68
2021/05/04 01:49:13;;;;;;;33.50;3.43;;;14.10;37.70;;;;;;5073781;28;20445;-68
2021/05/04 01:51:39;;;;;;;29.83;4.80;;;14.10;37.80;;;;;;5072467;28;20590;-68
2021/05/04 01:54:06;;;;;;;30.17;3.80;;;14.00;37.20;;;;;;5072902;28;20475;-68
2021/05/04 01:56:33;;;;;;;32.30;3.87;;;14.00;37.30;;;;;;5074383;28;20444;-68
2021/05/04 01:59:02;;;;;;;60.97;5.77;;;14.00;38.10;;;;;;5076023;28;20942;-67
2021/05/04 02:01:29;;;;;;;64.80;6.77;;;13.80;38.60;;;;;;5076340;28;20445;-67
2021/05/04 02:03:55;;;;;;;30.67;4.20;;;13.50;42.00;;;;;;5076374;28;20440;-67
2021/05/04 02:06:22;;;;;;;21.27;2.50;;;13.20;42.50;;;;;;5076319;28;20444;-66
2021/05/04 02:08:48;;;;;;;16.87;2.10;;;12.90;45.70;;;;;;5076403;28;20459;-67
2021/05/04 02:11:16;;;;;;;22.87;2.43;;;12.70;46.80;;;;;;5076053;28;20534;-67
2021/05/04 02:13:43;;;;;;;7.93;2.20;;;12.50;49.40;;;;;;5076102;28;20870;-67
2021/05/04 02:16:09;;;;;;;12.00;1.57;;;12.20;50.50;;;;;;5076086;28;20456;-67
2021/05/04 02:18:35;;;;;;;11.07;1.37;;;12.10;51.80;;;;;;5076073;28;20445;-67
2021/05/04 02:21:01;;;;;;;7.33;2.00;;;11.90;53.00;;;;;;5075636;28;20514;-67
2021/05/04 02:23:27;;;;;;;2.10;1.50;;;11.90;54.80;;;;;;5075985;28;20445;-67
2021/05/04 02:25:54;;;;;;;2.83;1.50;;;11.70;56.30;;;;;;5076009;28;20448;-67
2021/05/04 02:28:20;;;;;;;4.13;1.37;;;11.50;57.60;;;;;;5076808;28;20840;-67
2021/05/04 02:30:47;;;;;;;3.93;1.37;;;11.40;58.10;;;;;;5075728;28;20505;-67
2021/05/04 02:33:13;;;;;;;3.13;1.20;;;11.50;58.90;;;;;;5076106;28;20483;-67
2021/05/04 02:35:39;;;;;;;2.50;1.13;;;11.50;59.30;;;;;;5075813;28;20456;-66
2021/05/04 02:38:05;;;;;;;2.20;1.30;;;11.50;59.20;;;;;;5075740;28;20445;-66
2021/05/04 02:40:32;;;;;;;2.10;1.40;;;11.60;59.30;;;;;;5075553;28;20970;-66
2021/05/04 02:42:58;;;;;;;1.67;1.57;;;11.60;59.60;;;;;;5075664;28;20773;-66
2021/05/04 02:45:24;;;;;;;3.43;1.37;;;11.60;59.80;;;;;;5075553;28;20444;-66
2021/05/04 02:47:51;;;;;;;2.20;1.13;;;11.70;60.50;;;;;;5075650;28;20453;-66
2021/05/04 02:50:18;;;;;;;6.00;1.40;;;11.60;60.70;;;;;;5075448;28;20518;-66
2021/05/04 02:52:44;;;;;;;7.13;1.63;;;11.50;61.70;;;;;;5075566;28;20541;-66
2021/05/04 02:55:10;;;;;;;4.07;1.30;;;11.50;61.70;;;;;;5075694;28;20452;-66
2021/05/04 02:57:37;;;;;;;4.57;1.90;;;11.50;63.70;;;;;;5075412;28;20445;-66
2021/05/04 03:00:05;;;;;;;2.10;1.67;;;11.40;64.10;;;;;;5075254;28;20835;-66
2021/05/04 03:02:31;;;;;;;3.23;1.50;;;11.30;65.30;;;;;;5075372;28;20441;-66
2021/05/04 03:04:58;;;;;;;1.73;1.50;;;11.30;64.90;;;;;;5075113;28;20771;-66
2021/05/04 03:07:25;;;;;;;2.10;1.50;;;11.20;64.70;;;;;;5074595;28;20445;-67
2021/05/04 03:09:51;;;;;;;1.40;1.30;;;11.20;64.60;;;;;;5074601;28;20973;-67
2021/05/04 03:12:17;;;;;;;1.70;1.60;;;11.20;64.80;;;;;;5074748;28;20507;-67
2021/05/04 03:14:43;;;;;;;2.40;1.90;;;11.20;64.80;;;;;;5074734;28;20961;-67
2021/05/04 03:17:10;;;;;;;3.53;1.90;;;11.20;64.90;;;;;;5074872;28;20443;-67
2021/05/04 03:19:36;;;;;;;5.50;2.20;;;11.10;65.10;;;;;;5075021;28;20475;-67
2021/05/04 03:22:03;;;;;;;2.90;1.70;;;11.10;65.70;;;;;;5074614;28;21021;-67
2021/05/04 03:24:29;;;;;;;2.27;2.00;;;11.10;65.60;;;;;;5074909;28;20453;-67
2021/05/04 03:26:55;;;;;;;6.43;2.00;;;11.10;65.70;;;;;;5074562;28;21011;-67
2021/05/04 03:29:22;;;;;;;4.07;1.70;;;11.00;65.20;;;;;;5074807;28;20469;-67
2021/05/04 03:31:48;;;;;;;2.03;1.83;;;11.00;65.30;;;;;;5074660;28;20464;-67
2021/05/04 03:34:14;;;;;;;2.10;1.90;;;10.90;66.00;;;;;;5074638;28;20463;-67
2021/05/04 03:36:40;;;;;;;3.97;2.57;;;10.90;65.80;;;;;;5074649;28;20448;-67
2021/05/04 03:39:07;;;;;;;1.40;1.30;;;10.80;66.90;;;;;;5074585;28;20444;-67
2021/05/04 03:41:34;;;;;;;2.90;2.00;;;10.80;67.20;;;;;;5074486;28;20451;-67
2021/05/04 03:44:00;;;;;;;4.03;2.07;;;10.70;68.00;;;;;;5074617;28;20442;-67
2021/05/04 03:46:26;;;;;;;3.30;1.93;;;10.80;68.70;;;;;;5074584;28;20444;-67
2021/05/04 03:48:53;;;;;;;3.63;1.70;;;10.80;69.40;;;;;;5074552;28;20483;-67
2021/05/04 03:51:19;;;;;;;1.90;1.80;;;10.80;69.30;;;;;;5074220;28;20488;-67
2021/05/04 03:53:45;;;;;;;1.97;1.60;;;10.80;69.30;;;;;;5074322;28;20452;-67
2021/05/04 03:56:13;;;;;;;3.60;1.37;;;10.80;69.30;;;;;;5074492;28;20446;-67
2021/05/04 03:58:39;;;;;;;4.10;2.03;;;10.70;68.90;;;;;;5074626;28;20454;-67
2021/05/04 04:01:05;;;;;;;2.00;1.80;;;10.70;69.60;;;;;;5074224;28;20473;-67
2021/05/04 04:03:31;;;;;;;2.37;1.70;;;10.70;70.00;;;;;;5074120;28;20453;-67
2021/05/04 04:05:57;;;;;;;2.43;1.80;;;10.70;70.20;;;;;;5073917;28;20987;-67
2021/05/04 04:08:24;;;;;;;4.00;1.80;;;10.70;69.40;;;;;;5073794;28;20950;-67
2021/05/04 04:10:50;;;;;;;3.10;1.60;;;10.70;69.40;;;;;;5073588;28;20468;-67
2021/05/04 04:13:17;;;;;;;1.80;1.70;;;10.70;69.20;;;;;;5074158;28;20436;-67
2021/05/04 04:15:45;;;;;;;1.80;1.70;;;10.80;69.30;;;;;;5074030;28;20443;-67
2021/05/04 04:18:11;;;;;;;1.90;1.80;;;10.70;69.40;;;;;;5073790;28;20899;-67
2021/05/04 04:20:37;;;;;;;3.37;1.50;;;10.80;69.60;;;;;;5073731;28;20472;-67
2021/05/04 04:23:04;;;;;;;1.93;1.60;;;10.80;69.20;;;;;;5074304;28;20475;-67
2021/05/04 04:25:30;;;;;;;2.23;1.80;;;10.80;69.20;;;;;;5074634;28;20445;-68
2021/05/04 04:27:56;;;;;;;4.50;2.50;;;10.70;69.20;;;;;;5076239;28;20606;-67
2021/05/04 04:30:24;;;;;;;1.83;1.10;;;10.70;69.40;;;;;;5076412;28;20472;-67
2021/05/04 04:32:51;;;;;;;3.33;1.10;;;10.80;68.80;;;;;;5074527;28;20480;-67
2021/05/04 04:35:18;;;;;;;3.93;1.70;;;10.80;69.20;;;;;;5074475;28;20481;-67
2021/05/04 04:37:45;;;;;;;2.93;1.30;;;10.80;69.20;;;;;;5074258;28;20491;-67
2021/05/04 04:40:12;;;;;;;3.47;1.40;;;10.80;69.30;;;;;;5073893;28;20470;-67
2021/05/04 04:42:38;;;;;;;3.10;1.83;;;10.80;69.50;;;;;;5074525;28;20437;-67
2021/05/04 04:45:06;;;;;;;6.57;2.03;;;10.90;69.70;;;;;;5073431;28;20455;-67
2021/05/04 04:47:33;;;;;;;4.87;1.63;;;10.90;69.20;;;;;;5073558;28;20826;-67
2021/05/04 04:49:59;;;;;;;1.40;1.30;;;10.90;69.00;;;;;;5073126;28;20854;-68
2021/05/04 04:52:26;;;;;;;2.60;1.50;;;11.00;69.40;;;;;;5073341;28;20492;-67
2021/05/04 04:54:53;;;;;;;1.50;1.40;;;11.00;69.50;;;;;;5073511;28;20440;-67
2021/05/04 04:57:19;;;;;;;1.40;1.20;;;11.00;69.00;;;;;;5073371;28;20884;-67
2021/05/04 04:59:46;;;;;;;1.60;1.20;;;11.00;69.30;;;;;;5073259;28;20468;-67
2021/05/04 05:02:12;;;;;;;2.53;1.60;;;11.10;68.60;;;;;;5073584;28;20774;-67
2021/05/04 05:04:39;;;;;;;2.63;1.30;;;11.10;69.30;;;;;;5073608;28;20440;-67
2021/05/04 05:07:08;;;;;;;1.77;1.67;;;11.10;69.70;;;;;;5073275;28;20462;-67
2021/05/04 05:09:35;;;;;;;4.23;1.20;;;11.00;69.40;;;;;;5073423;28;20555;-67
2021/05/04 05:12:02;;;;;;;2.40;1.43;;;11.00;69.70;;;;;;5073325;28;20495;-67
2021/05/04 05:14:29;;;;;;;3.87;1.60;;;11.00;70.00;;;;;;5073590;28;20459;-67
2021/05/04 05:16:55;;;;;;;2.93;1.40;;;11.00;70.00;;;;;;5072941;28;20840;-67
2021/05/04 05:19:21;;;;;;;1.83;1.30;;;11.10;70.00;;;;;;5073202;28;20465;-66
2021/05/04 05:21:48;;;;;;;2.93;1.30;;;11.10;70.00;;;;;;5072887;28;20440;-67
2021/05/04 05:24:15;;;;;;;3.80;2.40;;;11.10;70.00;;;;;;5071730;28;20440;-67
2021/05/04 05:26:41;;;;;;;3.33;1.07;;;11.20;70.00;;;;;;5071155;28;20437;-68
2021/05/04 05:29:08;;;;;;;2.97;1.40;;;11.10;69.70;;;;;;5072589;28;20802;-67
2021/05/04 05:31:35;;;;;;;1.47;1.37;;;11.10;70.10;;;;;;5074629;28;20877;-69
2021/05/04 05:34:01;;;;;;;2.30;1.20;;;11.10;70.00;;;;;;5077025;28;20446;-68
2021/05/04 05:36:27;;;;;;;1.47;1.37;;;11.10;70.50;;;;;;5076715;28;20463;-68
2021/05/04 05:38:55;;;;;;;2.17;1.20;;;11.10;70.30;;;;;;5076507;28;20444;-68
2021/05/04 05:41:21;;;;;;;1.53;1.40;;;11.10;71.00;;;;;;5076955;28;20472;-68
2021/05/04 05:43:47;;;;;;;1.53;1.43;;;11.20;70.60;;;;;;5076811;28;20449;-68
2021/05/04 05:46:16;;;;;;;3.27;1.43;;;11.20;70.80;;;;;;5076725;28;20445;-68
2021/05/04 05:48:44;;;;;;;2.20;1.40;;;11.10;70.90;;;;;;5076492;28;20481;-68
2021/05/04 05:51:10;;;;;;;2.63;1.23;;;11.20;70.20;;;;;;5076093;28;20517;-68
2021/05/04 05:53:37;;;;;;;1.30;1.20;;;11.20;70.60;;;;;;5076515;28;20444;-68
2021/05/04 05:56:04;;;;;;;4.17;1.70;;;11.30;70.40;;;;;;5076571;28;20436;-69
2021/05/04 05:58:31;;;;;;;3.10;1.63;;;11.20;70.40;;;;;;5076991;28;20445;-68
2021/05/04 06:00:57;;;;;;;1.20;1.10;;;11.30;70.60;;;;;;5076524;28;20477;-68
2021/05/04 06:03:23;;;;;;;1.30;1.20;;;11.50;70.80;;;;;;5076413;28;20429;-68
2021/05/04 06:05:51;;;;;;;1.77;1.67;;;11.50;69.90;;;;;;5076496;28;20845;-68
2021/05/04 06:08:18;;;;;;;4.00;1.47;;;11.50;70.60;;;;;;5076936;28;20527;-68
2021/05/04 06:10:44;;;;;;;5.93;1.53;;;11.50;69.00;;;;;;5076317;28;20475;-68
2021/05/04 06:13:11;;;;;;;7.07;1.97;;;11.60;69.80;;;;;;5075857;28;21001;-68
2021/05/04 06:15:40;;;;;;;5.10;1.30;;;11.60;69.50;;;;;;5076205;28;20447;-69
2021/05/04 06:18:06;;;;;;;3.77;1.40;;;11.60;69.00;;;;;;5076151;28;20463;-68
2021/05/04 06:20:33;;;;;;;7.03;2.10;;;11.80;69.00;;;;;;5076081;28;20464;-68
2021/05/04 06:22:59;;;;;;;1.60;1.17;;;12.00;68.70;;;;;;5076140;28;20445;-69
2021/05/04 06:25:26;;;;;;;2.97;1.40;;;12.10;68.10;;;;;;5076092;28;20514;-68
2021/05/04 06:27:53;;;;;;;3.10;1.50;;;12.00;68.80;;;;;;5075968;28;20435;-68
2021/05/04 06:30:21;;;;;;;4.67;1.30;;;11.90;69.60;;;;;;5075934;28;20522;-68
2021/05/04 06:32:48;;;;;;;13.60;2.30;;;11.90;70.10;;;;;;5075834;28;20826;-68
2021/05/04 06:35:18;;;;;;;4.00;1.50;;;11.80;70.20;;;;;;5075904;28;20440;-68
2021/05/04 06:37:44;;;;;;;4.80;1.30;;;11.80;70.80;;;;;;5075951;28;20433;-68
2021/05/04 06:40:12;;;;;;;3.07;1.60;;;11.60;71.30;;;;;;5075490;28;20982;-68
2021/05/04 06:42:38;;;;;;;6.13;1.10;;;11.60;71.50;;;;;;5074857;28;20448;-68
2021/05/04 06:45:06;;;;;;;5.90;1.70;;;11.70;71.20;;;;;;5075662;28;20448;-68
2021/05/04 06:47:34;;;;;;;4.50;1.40;;;11.60;71.60;;;;;;5075716;28;20457;-68
2021/05/04 06:50:00;;;;;;;11.20;1.50;;;11.70;71.60;;;;;;5075304;28;21013;-68
2021/05/04 06:52:26;;;;;;;4.00;1.50;;;11.80;71.10;;;;;;5075165;28;21009;-68
2021/05/04 06:54:52;;;;;;;3.30;1.70;;;11.90;70.80;;;;;;5075540;28;20451;-68
2021/05/04 06:57:20;;;;;;;7.13;1.50;;;11.90;70.90;;;;;;5075491;28;20429;-68
2021/05/04 06:59:46;;;;;;;11.00;1.37;;;12.00;70.30;;;;;;5075335;28;20950;-68
2021/05/04 07:02:12;;;;;;;9.43;2.77;;;12.10;70.00;;;;;;5075670;28;20425;-68
2021/05/04 07:04:39;;;;;;;15.10;2.27;;;12.10;69.60;;;;;;5075274;28;20436;-68
2021/05/04 07:07:05;;;;;;;12.27;2.30;;;12.10;69.30;;;;;;5075295;28;20436;-68
2021/05/04 07:09:32;;;;;;;5.07;1.73;;;12.20;70.00;;;;;;5075226;28;20522;-68
2021/05/04 07:11:59;;;;;;;8.73;1.30;;;12.30;69.90;;;;;;5074852;28;20472;-68
2021/05/04 07:14:25;;;;;;;16.47;1.70;;;12.20;69.80;;;;;;5075200;28;20489;-68
2021/05/04 07:16:52;;;;;;;7.17;1.67;;;12.10;70.70;;;;;;5075056;28;20440;-68
2021/05/04 07:19:19;;;;;;;9.77;2.00;;;12.10;70.00;;;;;;5075076;28;20480;-68
2021/05/04 07:21:46;;;;;;;11.67;2.10;;;12.10;70.40;;;;;;5074909;28;20803;-68
2021/05/04 07:24:12;;;;;;;10.90;2.03;;;12.10;70.90;;;;;;5074851;28;20493;-68
2021/05/04 07:26:39;;;;;;;13.87;2.30;;;12.00;70.50;;;;;;5074550;28;21000;-68
2021/05/04 07:29:05;;;;;;;11.50;1.90;;;12.10;70.90;;;;;;5074852;28;20497;-68
2021/05/04 07:31:34;;;;;;;11.93;2.20;;;12.00;71.30;;;;;;5074565;28;20476;-68
2021/05/04 07:34:00;;;;;;;11.53;1.60;;;12.00;71.80;;;;;;5074875;28;20493;-68
2021/05/04 07:36:27;;;;;;;21.20;2.00;;;11.90;72.60;;;;;;5074485;28;20962;-68
2021/05/04 07:38:54;;;;;;;15.70;2.07;;;11.90;73.40;;;;;;5074907;28;20468;-68
2021/05/04 07:41:20;;;;;;;14.87;1.90;;;11.90;74.10;;;;;;5075547;28;20540;-67
2021/05/04 07:43:46;;;;;;;12.30;2.30;;;11.80;74.30;;;;;;5075266;28;20448;-68
2021/05/04 07:46:12;;;;;;;10.50;1.43;;;11.80;74.50;;;;;;5075102;28;20930;-68
2021/05/04 07:48:39;;;;;;;3.47;1.23;;;11.80;77.00;;;;;;5075023;28;20432;-68
2021/05/04 07:51:06;;;;;;;2.60;1.13;;;11.70;78.00;;;;;;5074723;28;20897;-68
2021/05/04 07:53:32;;;;;;;3.77;1.33;;;11.80;77.90;;;;;;5074089;28;20974;-68
2021/05/04 07:56:00;;;;;;;3.60;1.33;;;11.90;77.60;;;;;;5074360;28;20428;-68
2021/05/04 07:58:26;;;;;;;8.00;1.30;;;11.90;78.20;;;;;;5074246;28;20452;-68
2021/05/04 08:00:53;;;;;;;2.80;1.03;;;11.90;78.60;;;;;;5073779;28;21009;-68
2021/05/04 08:03:19;;;;;;;2.43;1.20;;;11.90;78.00;;;;;;5074124;28;20456;-68
2021/05/04 08:05:45;;;;;;;1.33;1.20;;;11.80;77.70;;;;;;5073781;28;21142;-68
2021/05/04 08:08:13;;;;;;;5.23;1.50;;;11.80;78.30;;;;;;5073971;28;20455;-68
2021/05/04 08:10:40;;;;;;;7.43;1.43;;;11.80;78.10;;;;;;5074017;28;20504;-68
2021/05/04 08:13:07;;;;;;;4.67;1.97;;;11.80;78.00;;;;;;5073853;28;20485;-68
2021/05/04 08:15:33;;;;;;;5.97;1.80;;;12.00;77.50;;;;;;5073868;28;20448;-68
2021/05/04 08:18:02;;;;;;;14.67;1.87;;;12.10;76.50;;;;;;5073552;28;20894;-68
2021/05/04 08:20:31;;;;;;;4.77;1.47;;;12.30;75.80;;;;;;5073706;28;20476;-68
2021/05/04 08:22:58;;;;;;;12.00;2.17;;;12.40;75.40;;;;;;5073778;28;20437;-68
2021/05/04 08:25:24;;;;;;;14.43;1.70;;;12.50;74.40;;;;;;5073739;28;20452;-68
2021/05/04 08:27:50;;;;;;;2.10;1.53;;;12.50;74.30;;;;;;5073654;28;20448;-68
2021/05/04 08:30:18;;;;;;;13.07;1.30;;;12.50;75.60;;;;;;5073911;28;20472;-68
2021/05/04 08:32:44;;;;;;;8.40;1.40;;;12.60;75.60;;;;;;5073617;28;20525;-68
2021/05/04 08:35:11;;;;;;;7.90;1.90;;;12.70;75.30;;;;;;5073662;28;20452;-68
2021/05/04 08:37:37;;;;;;;10.10;1.30;;;12.90;76.00;;;;;;5073557;28;20445;-68
2021/05/04 08:40:04;;;;;;;7.30;1.27;;;13.00;75.40;;;;;;5073525;28;20822;-68
2021/05/04 08:42:31;;;;;;;10.03;1.20;;;13.10;73.70;;;;;;5073550;28;20444;-68
2021/05/04 08:45:02;;;;;;;4.23;1.30;;;13.10;73.50;;;;;;5073556;28;20448;-68
2021/05/04 08:47:29;;;;;;;2.47;1.00;;;13.20;73.20;;;;;;5073783;28;20425;-68
2021/05/04 08:49:56;;;;;;;10.43;1.20;;;13.20;73.60;;;;;;5073278;28;20526;-68
2021/05/04 08:52:22;;;;;;;1.93;1.30;;;13.20;72.50;;;;;;5073679;28;20469;-68
2021/05/04 08:54:48;;;;;;;2.03;1.53;;;13.10;72.80;;;;;;5073383;28;20449;-68
2021/05/04 08:57:15;;;;;;;3.10;1.40;;;13.10;72.70;;;;;;5073369;28;20456;-68
2021/05/04 08:59:41;;;;;;;13.30;1.60;;;13.00;72.60;;;;;;5073436;28;20468;-68
2021/05/04 09:02:08;;;;;;;4.10;1.70;;;13.00;72.60;;;;;;5073385;28;20443;-69
2021/05/04 09:04:39;;;;;;;6.07;2.20;;;13.00;72.20;;;;;;5073088;28;20466;-68
2021/05/04 09:07:19;;;;;;;9.70;2.00;;;13.00;72.90;;;;;;5076049;28;20797;-68
2021/05/04 09:10:18;;;;;;;7.30;1.90;;;13.00;73.40;;;;;;5077423;28;20464;-68
2021/05/04 09:12:48;;;;;;;11.63;3.07;;;13.00;73.90;;;;;;5077325;28;20507;-68
2021/05/04 09:18:39;;;;;;;13.90;2.27;;;12.90;75.70;;;;;;5059658;28;20422;-68
2021/05/04 09:21:09;;;;;;;2.50;1.30;;;12.70;77.50;;;;;;5077181;28;20472;-68
2021/05/04 09:23:35;;;;;;;6.40;1.63;;;12.50;79.40;;;;;;5076941;28;20467;-68
2021/05/04 09:26:02;;;;;;;5.87;2.30;;;12.40;82.00;;;;;;5077112;28;20436;-68
2021/05/04 09:28:29;;;;;;;3.70;1.70;;;12.30;82.70;;;;;;5077095;28;20498;-68
2021/05/04 09:30:57;;;;;;;4.00;2.43;;;12.30;83.60;;;;;;5077035;28;20472;-68
2021/05/04 09:33:24;;;;;;;2.67;1.40;;;12.00;84.20;;;;;;5076676;28;20456;-68
2021/05/04 09:35:51;;;;;;;5.57;1.90;;;11.90;86.10;;;;;;5076951;28;20463;-68
2021/05/04 09:38:19;;;;;;;2.20;1.60;;;11.80;86.60;;;;;;5077773;28;20434;-68
2021/05/04 09:40:46;;;;;;;6.93;2.43;;;12.00;89.00;;;;;;5076999;28;20468;-68
2021/05/04 09:43:13;;;;;;;3.20;1.70;;;12.30;87.80;;;;;;5076558;28;20973;-68
2021/05/04 09:45:43;;;;;;;2.97;1.70;;;12.60;84.60;;;;;;5076777;28;20444;-68
2021/05/04 09:48:18;;;;;;;3.53;1.77;;;12.80;83.30;;;;;;5076629;28;20452;-68
2021/05/04 09:50:58;;;;;;;4.20;1.87;;;12.90;82.10;;;;;;5076488;28;20484;-68
2021/05/04 09:53:34;;;;;;;6.33;1.80;;;12.90;81.90;;;;;;5077356;28;20845;-68
2021/05/04 09:56:02;;;;;;;4.17;1.80;;;13.00;81.60;;;;;;5076585;28;20470;-68
2021/05/04 09:58:31;;;;;;;2.53;1.73;;;13.30;82.80;;;;;;5077079;28;20429;-68
2021/05/04 10:00:57;;;;;;;3.77;1.30;;;13.50;80.60;;;;;;5076638;28;20471;-68
2021/05/04 10:03:24;;;;;;;3.60;1.90;;;13.60;79.10;;;;;;5076535;28;20425;-68
2021/05/04 10:05:50;;;;;;;2.20;1.40;;;13.40;77.60;;;;;;5076307;28;20445;-68
2021/05/04 10:08:17;;;;;;;3.20;1.50;;;13.10;79.30;;;;;;5076399;28;20444;-68
2021/05/04 10:10:46;;;;;;;5.20;2.10;;;12.90;82.10;;;;;;5076334;28;20472;-68
2021/05/04 10:13:13;;;;;;;3.90;1.70;;;12.70;84.30;;;;;;5076204;28;20468;-68
2021/05/04 10:15:42;;;;;;;4.10;2.07;;;12.50;85.20;;;;;;5076042;28;20922;-69
2021/05/04 10:18:09;;;;;;;12.10;2.90;;;12.30;85.40;;;;;;5074507;28;20929;-68
2021/05/04 10:20:36;;;;;;;5.70;2.67;;;12.30;88.10;;;;;;5076481;28;20465;-68
2021/05/04 10:23:04;;;;;;;7.23;1.70;;;12.30;88.40;;;;;;5075924;28;20960;-68
2021/05/04 10:25:32;;;;;;;5.00;2.00;;;12.50;87.30;;;;;;5076162;28;20830;-68
2021/05/04 10:27:59;;;;;;;4.57;2.13;;;12.80;86.10;;;;;;5076001;28;20440;-68
2021/05/04 10:30:25;;;;;;;6.53;2.00;;;13.20;82.20;;;;;;5075898;28;20465;-68
2021/05/04 10:32:53;;;;;;;7.30;1.80;;;13.70;82.70;;;;;;5075739;28;20476;-68
2021/05/04 10:35:48;;;;;;;5.47;1.50;;;13.90;74.70;;;;;;5075916;28;20434;-68
2021/05/04 10:38:15;;;;;;;10.50;1.90;;;14.20;70.30;;;;;;5076662;28;20433;-68
2021/05/04 10:40:43;;;;;;;5.40;1.67;;;14.40;69.50;;;;;;5075682;28;20465;-68
2021/05/04 10:43:40;;;;;;;12.90;2.70;;;14.50;67.20;;;;;;5075617;28;20444;-68
2021/05/04 10:46:11;;;;;;;13.40;2.87;;;14.50;63.80;;;;;;5075751;28;20541;-68
2021/05/04 10:48:40;;;;;;;6.73;2.13;;;14.50;64.60;;;;;;5075723;28;20536;-68
2021/05/04 10:51:10;;;;;;;6.30;2.20;;;14.30;63.00;;;;;;5075340;28;20480;-68
2021/05/04 10:54:03;;;;;;;11.53;2.30;;;14.40;64.40;;;;;;5075473;28;20484;-68
2021/05/04 10:56:42;;;;;;;10.90;3.30;;;14.30;62.70;;;;;;5076436;28;20429;-67
2021/05/04 10:59:11;;;;;;;10.40;2.07;;;14.20;62.50;;;;;;5075366;28;20443;-67
2021/05/04 11:01:37;;;;;;;8.00;2.50;;;14.40;61.90;;;;;;5075296;28;20445;-67
2021/05/04 11:04:06;;;;;;;10.67;2.93;;;14.60;61.00;;;;;;5075371;28;20425;-68
2021/05/04 11:06:49;;;;;;;8.30;2.13;;;14.70;57.70;;;;;;5075270;28;20440;-68
2021/05/04 11:09:16;;;;;;;9.10;2.27;;;14.80;58.40;;;;;;5075094;28;20501;-70
2021/05/04 11:11:46;;;;;;;10.10;1.70;;;14.80;55.80;;;;;;5075020;28;20452;-67
2021/05/04 11:14:27;;;;;;;12.20;2.17;;;14.70;55.70;;;;;;5074717;28;20544;-68
2021/05/04 11:17:21;;;;;;;11.00;2.20;;;14.60;56.50;;;;;;5075027;28;20429;-67
2021/05/04 11:19:47;;;;;;;8.07;2.20;;;14.50;57.80;;;;;;5074924;28;20543;-68
2021/05/04 11:22:23;;;;;;;5.87;1.67;;;14.40;56.80;;;;;;5074902;28;20437;-68
2021/05/04 11:24:52;;;;;;;8.67;2.27;;;14.00;56.10;;;;;;5074825;28;20434;-68
2021/05/04 11:27:20;;;;;;;20.73;3.00;;;13.70;57.00;;;;;;5075591;28;20439;-68
2021/05/04 11:29:49;;;;;;;19.10;3.30;;;13.50;57.10;;;;;;5074895;28;20826;-68
2021/05/04 11:32:18;;;;;;;9.33;2.40;;;13.50;57.60;;;;;;5074249;28;20502;-68
2021/05/04 11:34:45;;;;;;;8.80;2.40;;;13.60;57.90;;;;;;5074647;28;20513;-68
2021/05/04 11:37:14;;;;;;;11.43;2.60;;;13.60;56.90;;;;;;5074579;28;20493;-68
2021/05/04 11:39:50;;;;;;;16.37;2.47;;;13.90;57.20;;;;;;5074516;28;20469;-68
2021/05/04 11:42:17;;;;;;;25.83;2.30;;;14.30;55.50;;;;;;5074557;28;20437;-68
2021/05/04 11:44:44;;;;;;;12.83;2.13;;;14.80;54.70;;;;;;5074162;28;20953;-68
2021/05/04 11:47:21;;;;;;;11.87;2.20;;;14.80;52.70;;;;;;5074383;28;20448;-68
2021/05/04 11:49:48;;;;;;;24.07;5.00;;;14.70;55.20;;;;;;5074327;28;20464;-68
2021/05/04 11:52:16;;;;;;;31.00;3.60;;;14.50;54.70;;;;;;5074260;28;20837;-68
2021/05/04 11:54:44;;;;;;;29.97;3.80;;;14.30;54.80;;;;;;5074225;28;20440;-68
2021/05/04 11:57:10;;;;;;;34.90;6.33;;;14.40;55.00;;;;;;5074413;28;20429;-68
2021/05/04 11:59:37;;;;;;;28.27;5.40;;;14.40;54.00;;;;;;5073757;28;20969;-68
2021/05/04 12:02:04;;;;;;;23.50;3.47;;;14.50;52.50;;;;;;5073927;28;20433;-68
2021/05/04 12:04:50;;;;;;;25.80;3.80;;;14.50;52.80;;;;;;5074433;28;20448;-68
2021/05/04 12:07:34;;;;;;;38.23;4.60;;;14.30;53.00;;;;;;5074100;28;20429;-68
2021/05/04 12:10:00;;;;;;;40.20;5.10;;;14.10;52.70;;;;;;5074028;28;20464;-68
2021/05/04 12:12:40;;;;;;;28.23;4.07;;;14.10;53.10;;;;;;5073898;28;20997;-68
2021/05/04 12:15:08;;;;;;;20.70;4.00;;;14.20;52.30;;;;;;5073741;28;20801;-68
2021/05/04 12:17:34;;;;;;;32.70;4.97;;;14.20;53.40;;;;;;5073702;28;20453;-68
2021/05/04 12:20:10;;;;;;;32.43;4.30;;;14.10;53.90;;;;;;5073729;28;20464;-68
2021/05/04 12:22:47;;;;;;;53.47;5.63;;;14.40;53.30;;;;;;5073890;28;20428;-68
2021/05/04 12:25:15;;;;;;;17.17;3.77;;;14.70;52.50;;;;;;5073836;28;20432;-68
2021/05/04 12:27:42;;;;;;;27.57;3.23;;;14.60;51.10;;;;;;5073741;28;20467;-68
2021/05/04 12:30:11;;;;;;;18.07;3.10;;;14.70;53.60;;;;;;5074108;28;20530;-68
2021/05/04 12:32:38;;;;;;;24.50;3.03;;;15.40;52.60;;;;;;5073621;28;20484;-68
2021/05/04 12:35:17;;;;;;;34.43;4.00;;;15.70;51.50;;;;;;5073652;28;20499;-68
2021/05/04 12:37:44;;;;;;;22.93;3.73;;;15.50;50.60;;;;;;5073724;28;20459;-68
2021/05/04 12:40:18;;;;;;;23.73;3.00;;;15.50;51.00;;;;;;5072807;28;20962;-68
2021/05/04 12:42:46;;;;;;;17.30;2.70;;;15.40;50.90;;;;;;5073387;28;20428;-68
2021/05/04 12:45:14;;;;;;;19.37;3.47;;;15.10;51.30;;;;;;5073539;28;20445;-68
2021/05/04 12:47:51;;;;;;;20.60;4.40;;;14.70;51.70;;;;;;5073717;28;20433;-68
2021/05/04 12:50:28;;;;;;;9.30;2.47;;;14.60;53.10;;;;;;5073174;28;20488;-68